sensor_id;sensor_type;location;lat;lon;timestamp;pressure;altitude;pressure_sealevel;temperature;humidity
52319;BME280;38258;51.148;14.068;2023-07-02T00:01:18;97288.88;;;15.99;100.00
52319;BME280;38258;51.148;14.068;2023-07-02T00:03:44;97288.56;;;16.04;100.00
52319;BME280;38258;51.148;14.068;2023-07-02T00:06:11;97291.41;;;16.01;100.00
52319;BME280;38258;51.148;14.068;2023-07-02T00:08:38;97287.63;;;16.05;100.00
52319;BME280;38258;51.148;14.068;2023-07-02T00:11:07;97292.88;;;16.05;100.00
52319;BME280;38258;51.148;14.068;2023-07-02T00:13:37;97291.00;;;16.07;100.00
52319;BME280;38258;51.148;14.068;2023-07-02T00:16:04;97283.94;;;16.07;100.00
52319;BME280;38258;51.148;14.068;2023-07-02T00:18:31;97291.41;;;16.14;100.00
52319;BME280;38258;51.148;14.068;2023-07-02T00:21:00;97296.06;;;16.23;100.00
52319;BME280;38258;51.148;14.068;2023-07-02T00:23:28;97295.53;;;16.18;100.00
52319;BME280;38258;51.148;14.068;2023-07-02T00:25:54;97291.00;;;16.20;100.00
52319;BME280;38258;51.148;14.068;2023-07-02T00:28:22;97297.75;;;16.24;100.00
52319;BME280;38258;51.148;14.068;2023-07-02T00:30:50;97299.44;;;16.25;100.00
52319;BME280;38258;51.148;14.068;2023-07-02T00:33:16;97299.75;;;16.33;100.00
52319;BME280;38258;51.148;14.068;2023-07-02T00:35:43;97296.59;;;16.41;100.00
52319;BME280;38258;51.148;14.068;2023-07-02T00:38:10;97308.41;;;16.35;100.00
52319;BME280;38258;51.148;14.068;2023-07-02T00:40:36;97299.88;;;16.45;100.00
52319;BME280;38258;51.148;14.068;2023-07-02T00:43:03;97310.06;;;16.49;100.00
52319;BME280;38258;51.148;14.068;2023-07-02T00:45:31;97300.28;;;16.51;100.00
52319;BME280;38258;51.148;14.068;2023-07-02T00:47:58;97303.75;;;16.52;100.00
52319;BME280;38258;51.148;14.068;2023-07-02T00:50:26;97296.69;;;16.39;100.00
52319;BME280;38258;51.148;14.068;2023-07-02T00:52:53;97293.09;;;16.40;100.00
52319;BME280;38258;51.148;14.068;2023-07-02T00:55:20;97294.38;;;16.48;100.00
52319;BME280;38258;51.148;14.068;2023-07-02T00:57:47;97293.19;;;16.52;100.00
52319;BME280;38258;51.148;14.068;2023-07-02T01:00:14;97291.28;;;16.54;100.00
52319;BME280;38258;51.148;14.068;2023-07-02T01:02:42;97288.13;;;16.49;100.00
52319;BME280;38258;51.148;14.068;2023-07-02T01:05:14;97292.34;;;16.51;100.00
52319;BME280;38258;51.148;14.068;2023-07-02T01:07:41;97292.13;;;16.54;100.00
52319;BME280;38258;51.148;14.068;2023-07-02T01:10:08;97293.31;;;16.50;100.00
52319;BME280;38258;51.148;14.068;2023-07-02T01:12:36;97291.00;;;16.46;100.00
52319;BME280;38258;51.148;14.068;2023-07-02T01:15:05;97292.47;;;16.50;100.00
52319;BME280;38258;51.148;14.068;2023-07-02T01:17:34;97291.19;;;16.56;100.00
52319;BME280;38258;51.148;14.068;2023-07-02T01:20:09;97285.41;;;16.50;100.00
52319;BME280;38258;51.148;14.068;2023-07-02T01:22:36;97292.13;;;16.54;100.00
52319;BME280;38258;51.148;14.068;2023-07-02T01:25:04;97286.84;;;16.54;100.00
52319;BME280;38258;51.148;14.068;2023-07-02T01:27:35;97282.63;;;16.52;100.00
52319;BME280;38258;51.148;14.068;2023-07-02T01:30:02;97290.31;;;16.55;100.00
52319;BME280;38258;51.148;14.068;2023-07-02T01:32:29;97289.81;;;16.50;100.00
52319;BME280;38258;51.148;14.068;2023-07-02T01:34:56;97292.00;;;16.56;100.00
52319;BME280;38258;51.148;14.068;2023-07-02T01:37:25;97290.22;;;16.57;100.00
52319;BME280;38258;51.148;14.068;2023-07-02T01:39:52;97293.09;;;16.53;100.00
52319;BME280;38258;51.148;14.068;2023-07-02T01:42:19;97285.47;;;16.62;100.00
52319;BME280;38258;51.148;14.068;2023-07-02T01:44:47;97286.13;;;16.52;100.00
52319;BME280;38258;51.148;14.068;2023-07-02T01:47:15;97288.00;;;16.63;100.00
52319;BME280;38258;51.148;14.068;2023-07-02T01:49:42;97286.09;;;16.65;100.00
52319;BME280;38258;51.148;14.068;2023-07-02T01:52:08;97281.84;;;16.63;100.00
52319;BME280;38258;51.148;14.068;2023-07-02T01:54:36;97280.53;;;16.57;100.00
52319;BME280;38258;51.148;14.068;2023-07-02T01:57:04;97286.53;;;16.59;100.00
52319;BME280;38258;51.148;14.068;2023-07-02T01:59:31;97282.09;;;16.60;100.00
52319;BME280;38258;51.148;14.068;2023-07-02T02:01:57;97279.66;;;16.57;100.00
52319;BME280;38258;51.148;14.068;2023-07-02T02:04:24;97282.41;;;16.55;100.00
52319;BME280;38258;51.148;14.068;2023-07-02T02:06:52;97289.78;;;16.63;100.00
52319;BME280;38258;51.148;14.068;2023-07-02T02:09:19;97282.31;;;16.57;100.00
52319;BME280;38258;51.148;14.068;2023-07-02T02:11:48;97291.09;;;16.57;100.00
52319;BME280;38258;51.148;14.068;2023-07-02T02:14:15;97292.88;;;16.57;100.00
52319;BME280;38258;51.148;14.068;2023-07-02T02:16:42;97291.81;;;16.59;100.00
52319;BME280;38258;51.148;14.068;2023-07-02T02:19:11;97291.81;;;16.59;100.00
52319;BME280;38258;51.148;14.068;2023-07-02T02:21:37;97298.06;;;16.58;100.00
52319;BME280;38258;51.148;14.068;2023-07-02T02:24:06;97296.00;;;16.62;100.00
52319;BME280;38258;51.148;14.068;2023-07-02T02:26:33;97290.69;;;16.50;100.00
52319;BME280;38258;51.148;14.068;2023-07-02T02:29:01;97299.84;;;16.58;100.00
52319;BME280;38258;51.148;14.068;2023-07-02T02:31:27;97295.09;;;16.50;100.00
52319;BME280;38258;51.148;14.068;2023-07-02T02:33:55;97297.28;;;16.56;100.00
52319;BME280;38258;51.148;14.068;2023-07-02T02:36:22;97296.16;;;16.47;100.00
52319;BME280;38258;51.148;14.068;2023-07-02T02:38:49;97296.03;;;16.49;100.00
52319;BME280;38258;51.148;14.068;2023-07-02T02:41:16;97306.28;;;16.53;100.00
52319;BME280;38258;51.148;14.068;2023-07-02T02:43:47;97297.97;;;16.47;100.00
52319;BME280;38258;51.148;14.068;2023-07-02T02:46:21;97294.69;;;16.43;100.00
52319;BME280;38258;51.148;14.068;2023-07-02T02:48:48;97300.16;;;16.53;100.00
52319;BME280;38258;51.148;14.068;2023-07-02T02:51:15;97300.19;;;16.40;100.00
52319;BME280;38258;51.148;14.068;2023-07-02T02:53:41;97298.28;;;16.42;100.00
52319;BME280;38258;51.148;14.068;2023-07-02T02:56:08;97297.94;;;16.34;100.00
52319;BME280;38258;51.148;14.068;2023-07-02T02:58:35;97297.84;;;16.35;100.00
52319;BME280;38258;51.148;14.068;2023-07-02T03:01:01;97299.53;;;16.36;100.00
52319;BME280;38258;51.148;14.068;2023-07-02T03:03:30;97306.72;;;16.34;100.00
52319;BME280;38258;51.148;14.068;2023-07-02T03:05:59;97299.03;;;16.31;100.00
52319;BME280;38258;51.148;14.068;2023-07-02T03:08:26;97306.72;;;16.34;100.00
52319;BME280;38258;51.148;14.068;2023-07-02T03:10:53;97303.13;;;16.35;100.00
52319;BME280;38258;51.148;14.068;2023-07-02T03:13:20;97312.31;;;16.43;100.00
52319;BME280;38258;51.148;14.068;2023-07-02T03:15:46;97311.03;;;16.35;100.00
52319;BME280;38258;51.148;14.068;2023-07-02T03:18:13;97310.31;;;16.33;100.00
52319;BME280;38258;51.148;14.068;2023-07-02T03:20:41;97304.50;;;16.28;100.00
52319;BME280;38258;51.148;14.068;2023-07-02T03:23:08;97313.69;;;16.35;100.00
52319;BME280;38258;51.148;14.068;2023-07-02T03:25:34;97307.69;;;16.33;100.00
52319;BME280;38258;51.148;14.068;2023-07-02T03:28:01;97308.94;;;16.28;100.00
52319;BME280;38258;51.148;14.068;2023-07-02T03:30:28;97309.34;;;16.34;100.00
52319;BME280;38258;51.148;14.068;2023-07-02T03:32:54;97313.59;;;16.37;100.00
52319;BME280;38258;51.148;14.068;2023-07-02T03:35:21;97311.78;;;16.37;100.00
52319;BME280;38258;51.148;14.068;2023-07-02T03:37:49;97314.41;;;16.37;100.00
52319;BME280;38258;51.148;14.068;2023-07-02T03:40:16;97309.34;;;16.34;100.00
52319;BME280;38258;51.148;14.068;2023-07-02T03:42:43;97321.19;;;16.29;100.00
52319;BME280;38258;51.148;14.068;2023-07-02T03:45:10;97315.06;;;16.41;100.00
52319;BME280;38258;51.148;14.068;2023-07-02T03:47:36;97305.97;;;16.45;100.00
52319;BME280;38258;51.148;14.068;2023-07-02T03:50:04;97305.22;;;16.43;100.00
52319;BME280;38258;51.148;14.068;2023-07-02T03:52:30;97320.44;;;16.39;100.00
52319;BME280;38258;51.148;14.068;2023-07-02T03:54:58;97317.47;;;16.44;100.00
52319;BME280;38258;51.148;14.068;2023-07-02T03:57:25;97323.41;;;16.48;100.00
52319;BME280;38258;51.148;14.068;2023-07-02T03:59:55;97320.84;;;16.46;100.00
52319;BME280;38258;51.148;14.068;2023-07-02T04:02:22;97330.47;;;16.34;100.00
52319;BME280;38258;51.148;14.068;2023-07-02T04:04:49;97338.69;;;16.30;100.00
52319;BME280;38258;51.148;14.068;2023-07-02T04:07:15;97350.97;;;16.44;100.00
52319;BME280;38258;51.148;14.068;2023-07-02T04:09:42;97357.38;;;16.39;100.00
52319;BME280;38258;51.148;14.068;2023-07-02T04:12:10;97357.25;;;16.28;100.00
52319;BME280;38258;51.148;14.068;2023-07-02T04:14:37;97372.78;;;15.79;100.00
52319;BME280;38258;51.148;14.068;2023-07-02T04:17:04;97375.63;;;15.76;100.00
52319;BME280;38258;51.148;14.068;2023-07-02T04:19:31;97372.13;;;15.76;100.00
52319;BME280;38258;51.148;14.068;2023-07-02T04:21:58;97374.81;;;15.61;100.00
52319;BME280;38258;51.148;14.068;2023-07-02T04:24:24;97394.31;;;15.31;100.00
52319;BME280;38258;51.148;14.068;2023-07-02T04:26:52;97397.28;;;14.83;100.00
52319;BME280;38258;51.148;14.068;2023-07-02T04:29:20;97392.78;;;14.85;100.00
52319;BME280;38258;51.148;14.068;2023-07-02T04:31:47;97385.97;;;14.66;100.00
52319;BME280;38258;51.148;14.068;2023-07-02T04:34:13;97396.19;;;14.87;100.00
52319;BME280;38258;51.148;14.068;2023-07-02T04:36:40;97397.59;;;14.78;100.00
52319;BME280;38258;51.148;14.068;2023-07-02T04:39:08;97398.50;;;14.92;100.00
52319;BME280;38258;51.148;14.068;2023-07-02T04:41:36;97405.00;;;14.72;100.00
52319;BME280;38258;51.148;14.068;2023-07-02T04:44:03;97408.59;;;14.85;100.00
52319;BME280;38258;51.148;14.068;2023-07-02T04:46:31;97403.00;;;14.90;100.00
52319;BME280;38258;51.148;14.068;2023-07-02T04:48:58;97412.03;;;14.71;100.00
52319;BME280;38258;51.148;14.068;2023-07-02T04:51:24;97410.63;;;14.80;100.00
52319;BME280;38258;51.148;14.068;2023-07-02T04:53:51;97415.06;;;14.79;100.00
52319;BME280;38258;51.148;14.068;2023-07-02T04:56:18;97419.56;;;14.77;100.00
52319;BME280;38258;51.148;14.068;2023-07-02T04:58:44;97422.94;;;14.65;100.00
52319;BME280;38258;51.148;14.068;2023-07-02T05:01:11;97436.22;;;14.78;100.00
52319;BME280;38258;51.148;14.068;2023-07-02T05:03:39;97428.72;;;14.72;100.00
52319;BME280;38258;51.148;14.068;2023-07-02T05:06:06;97432.72;;;14.77;100.00
52319;BME280;38258;51.148;14.068;2023-07-02T05:08:33;97434.59;;;14.75;100.00
52319;BME280;38258;51.148;14.068;2023-07-02T05:10:59;97431.34;;;14.86;100.00
52319;BME280;38258;51.148;14.068;2023-07-02T05:13:26;97434.84;;;14.56;100.00
52319;BME280;38258;51.148;14.068;2023-07-02T05:15:53;97426.97;;;14.70;100.00
52319;BME280;38258;51.148;14.068;2023-07-02T05:18:19;97428.84;;;14.68;100.00
52319;BME280;38258;51.148;14.068;2023-07-02T05:20:47;97435.31;;;14.63;100.00
52319;BME280;38258;51.148;14.068;2023-07-02T05:23:14;97432.69;;;14.63;100.00
52319;BME280;38258;51.148;14.068;2023-07-02T05:25:41;97427.97;;;14.39;100.00
52319;BME280;38258;51.148;14.068;2023-07-02T05:28:08;97429.19;;;14.48;100.00
52319;BME280;38258;51.148;14.068;2023-07-02T05:30:34;97434.75;;;14.57;100.00
52319;BME280;38258;51.148;14.068;2023-07-02T05:33:01;97425.28;;;14.84;100.00
52319;BME280;38258;51.148;14.068;2023-07-02T05:35:27;97422.78;;;14.97;100.00
52319;BME280;38258;51.148;14.068;2023-07-02T05:37:55;97434.31;;;15.09;100.00
52319;BME280;38258;51.148;14.068;2023-07-02T05:40:22;97431.41;;;15.13;100.00
52319;BME280;38258;51.148;14.068;2023-07-02T05:42:49;97446.81;;;15.05;100.00
52319;BME280;38258;51.148;14.068;2023-07-02T05:45:15;97439.97;;;15.03;100.00
52319;BME280;38258;51.148;14.068;2023-07-02T05:47:42;97439.59;;;15.09;100.00
52319;BME280;38258;51.148;14.068;2023-07-02T05:50:09;97447.19;;;15.28;100.00
52319;BME280;38258;51.148;14.068;2023-07-02T05:52:36;97436.94;;;15.23;100.00
52319;BME280;38258;51.148;14.068;2023-07-02T05:55:04;97439.75;;;15.35;100.00
52319;BME280;38258;51.148;14.068;2023-07-02T05:57:31;97437.84;;;15.37;100.00
52319;BME280;38258;51.148;14.068;2023-07-02T05:59:58;97443.84;;;15.53;100.00
52319;BME280;38258;51.148;14.068;2023-07-02T06:02:24;97453.31;;;15.71;100.00
52319;BME280;38258;51.148;14.068;2023-07-02T06:04:51;97451.41;;;15.73;100.00
52319;BME280;38258;51.148;14.068;2023-07-02T06:07:18;97457.88;;;15.96;100.00
52319;BME280;38258;51.148;14.068;2023-07-02T06:09:44;97463.59;;;15.88;100.00
52319;BME280;38258;51.148;14.068;2023-07-02T06:12:13;97465.06;;;15.79;100.00
52319;BME280;38258;51.148;14.068;2023-07-02T06:14:48;97461.31;;;16.11;100.00
52319;BME280;38258;51.148;14.068;2023-07-02T06:17:32;97457.50;;;16.15;100.00
52319;BME280;38258;51.148;14.068;2023-07-02T06:20:05;97468.41;;;16.36;100.00
52319;BME280;38258;51.148;14.068;2023-07-02T06:22:35;97456.94;;;16.76;100.00
52319;BME280;38258;51.148;14.068;2023-07-02T06:25:02;97457.47;;;16.94;100.00
52319;BME280;38258;51.148;14.068;2023-07-02T06:27:30;97464.16;;;16.87;100.00
52319;BME280;38258;51.148;14.068;2023-07-02T06:29:57;97461.09;;;16.80;100.00
52319;BME280;38258;51.148;14.068;2023-07-02T06:32:24;97470.69;;;16.56;100.00
52319;BME280;38258;51.148;14.068;2023-07-02T06:34:50;97470.06;;;16.65;100.00
52319;BME280;38258;51.148;14.068;2023-07-02T06:37:17;97467.50;;;16.76;100.00
52319;BME280;38258;51.148;14.068;2023-07-02T06:39:44;97465.06;;;17.38;100.00
52319;BME280;38258;51.148;14.068;2023-07-02T06:42:11;97467.63;;;17.64;100.00
52319;BME280;38258;51.148;14.068;2023-07-02T06:44:41;97471.53;;;17.34;100.00
52319;BME280;38258;51.148;14.068;2023-07-02T06:47:07;97473.66;;;17.29;100.00
52319;BME280;38258;51.148;14.068;2023-07-02T06:49:34;97474.50;;;17.29;100.00
52319;BME280;38258;51.148;14.068;2023-07-02T06:52:01;97478.69;;;17.45;100.00
52319;BME280;38258;51.148;14.068;2023-07-02T06:54:27;97474.84;;;17.62;100.00
52319;BME280;38258;51.148;14.068;2023-07-02T06:56:54;97479.78;;;17.29;100.00
52319;BME280;38258;51.148;14.068;2023-07-02T06:59:22;97483.41;;;17.15;100.00
52319;BME280;38258;51.148;14.068;2023-07-02T07:01:50;97482.66;;;17.00;100.00
52319;BME280;38258;51.148;14.068;2023-07-02T07:04:17;97478.09;;;17.28;100.00
52319;BME280;38258;51.148;14.068;2023-07-02T07:06:43;97471.31;;;17.37;100.00
52319;BME280;38258;51.148;14.068;2023-07-02T07:09:10;97482.97;;;17.21;100.00
52319;BME280;38258;51.148;14.068;2023-07-02T07:11:36;97479.41;;;17.47;100.00
52319;BME280;38258;51.148;14.068;2023-07-02T07:14:03;97477.44;;;17.75;100.00
52319;BME280;38258;51.148;14.068;2023-07-02T07:16:30;97481.16;;;17.72;100.00
52319;BME280;38258;51.148;14.068;2023-07-02T07:18:58;97478.63;;;18.08;100.00
52319;BME280;38258;51.148;14.068;2023-07-02T07:21:25;97479.25;;;17.99;100.00
52319;BME280;38258;51.148;14.068;2023-07-02T07:23:51;97480.28;;;18.33;100.00
52319;BME280;38258;51.148;14.068;2023-07-02T07:26:18;97476.84;;;18.56;100.00
52319;BME280;38258;51.148;14.068;2023-07-02T07:28:45;97467.66;;;18.37;100.00
52319;BME280;38258;51.148;14.068;2023-07-02T07:31:11;97471.44;;;18.57;100.00
52319;BME280;38258;51.148;14.068;2023-07-02T07:33:38;97475.78;;;18.58;100.00
52319;BME280;38258;51.148;14.068;2023-07-02T07:36:06;97466.88;;;18.71;100.00
52319;BME280;38258;51.148;14.068;2023-07-02T07:38:33;97477.69;;;18.56;100.00
52319;BME280;38258;51.148;14.068;2023-07-02T07:41:00;97472.28;;;18.58;100.00
52319;BME280;38258;51.148;14.068;2023-07-02T07:43:26;97474.59;;;18.85;100.00
52319;BME280;38258;51.148;14.068;2023-07-02T07:45:53;97481.19;;;18.57;100.00
52319;BME280;38258;51.148;14.068;2023-07-02T07:48:20;97477.97;;;18.29;100.00
52319;BME280;38258;51.148;14.068;2023-07-02T07:50:47;97480.66;;;18.87;100.00
52319;BME280;38258;51.148;14.068;2023-07-02T07:53:15;97480.00;;;18.72;100.00
52319;BME280;38258;51.148;14.068;2023-07-02T07:55:42;97478.78;;;19.24;100.00
52319;BME280;38258;51.148;14.068;2023-07-02T07:58:08;97496.97;;;19.40;100.00
52319;BME280;38258;51.148;14.068;2023-07-02T08:00:35;97490.72;;;18.59;100.00
52319;BME280;38258;51.148;14.068;2023-07-02T08:03:02;97492.75;;;18.56;100.00
52319;BME280;38258;51.148;14.068;2023-07-02T08:05:29;97480.66;;;18.40;100.00
52319;BME280;38258;51.148;14.068;2023-07-02T08:07:56;97477.91;;;18.53;100.00
52319;BME280;38258;51.148;14.068;2023-07-02T08:10:25;97498.81;;;18.09;100.00
52319;BME280;38258;51.148;14.068;2023-07-02T08:12:53;97486.59;;;17.58;100.00
52319;BME280;38258;51.148;14.068;2023-07-02T08:15:20;97489.22;;;17.95;100.00
52319;BME280;38258;51.148;14.068;2023-07-02T08:17:46;97464.97;;;18.01;100.00
52319;BME280;38258;51.148;14.068;2023-07-02T08:20:13;97474.13;;;17.84;100.00
52319;BME280;38258;51.148;14.068;2023-07-02T08:22:40;97483.78;;;18.09;100.00
52319;BME280;38258;51.148;14.068;2023-07-02T08:25:07;97484.41;;;19.07;100.00
52319;BME280;38258;51.148;14.068;2023-07-02T08:27:35;97491.19;;;19.12;100.00
52319;BME280;38258;51.148;14.068;2023-07-02T08:30:02;97496.38;;;19.59;100.00
52319;BME280;38258;51.148;14.068;2023-07-02T08:32:28;97486.25;;;20.08;100.00
52319;BME280;38258;51.148;14.068;2023-07-02T08:34:55;97487.97;;;20.09;100.00
52319;BME280;38258;51.148;14.068;2023-07-02T08:37:21;97488.75;;;19.66;100.00
52319;BME280;38258;51.148;14.068;2023-07-02T08:39:49;97490.22;;;19.47;100.00
52319;BME280;38258;51.148;14.068;2023-07-02T08:42:15;97491.16;;;19.69;100.00
52319;BME280;38258;51.148;14.068;2023-07-02T08:44:45;97503.47;;;19.58;100.00
52319;BME280;38258;51.148;14.068;2023-07-02T08:47:12;97503.16;;;20.61;100.00
52319;BME280;38258;51.148;14.068;2023-07-02T08:49:39;97507.72;;;21.13;90.67
52319;BME280;38258;51.148;14.068;2023-07-02T08:52:06;97510.69;;;21.19;82.21
52319;BME280;38258;51.148;14.068;2023-07-02T08:54:33;97503.69;;;21.50;72.79
52319;BME280;38258;51.148;14.068;2023-07-02T08:56:59;97507.69;;;21.03;76.65
52319;BME280;38258;51.148;14.068;2023-07-02T08:59:30;97512.03;;;21.35;75.84
52319;BME280;38258;51.148;14.068;2023-07-02T09:01:58;97507.63;;;22.06;66.71
52319;BME280;38258;51.148;14.068;2023-07-02T09:04:25;97505.59;;;22.49;67.16
52319;BME280;38258;51.148;14.068;2023-07-02T09:07:03;97503.38;;;21.84;68.12
52319;BME280;38258;51.148;14.068;2023-07-02T09:09:30;97512.94;;;22.16;70.42
52319;BME280;38258;51.148;14.068;2023-07-02T09:11:57;97514.78;;;22.45;69.76
52319;BME280;38258;51.148;14.068;2023-07-02T09:14:25;97516.63;;;22.35;64.52
52319;BME280;38258;51.148;14.068;2023-07-02T09:17:03;97515.19;;;22.30;66.04
52319;BME280;38258;51.148;14.068;2023-07-02T09:19:30;97513.69;;;22.48;68.71
52319;BME280;38258;51.148;14.068;2023-07-02T09:21:58;97526.47;;;22.54;68.43
52319;BME280;38258;51.148;14.068;2023-07-02T09:24:26;97518.19;;;22.67;59.67
52319;BME280;38258;51.148;14.068;2023-07-02T09:26:55;97508.97;;;21.81;56.91
52319;BME280;38258;51.148;14.068;2023-07-02T09:29:23;97519.13;;;22.85;55.87
52319;BME280;38258;51.148;14.068;2023-07-02T09:31:51;97521.00;;;21.75;60.17
52319;BME280;38258;51.148;14.068;2023-07-02T09:34:18;97525.66;;;21.93;56.59
52319;BME280;38258;51.148;14.068;2023-07-02T09:36:46;97518.31;;;22.65;55.50
52319;BME280;38258;51.148;14.068;2023-07-02T09:39:13;97514.78;;;22.84;54.76
52319;BME280;38258;51.148;14.068;2023-07-02T09:41:41;97517.97;;;23.08;54.09
52319;BME280;38258;51.148;14.068;2023-07-02T09:44:08;97523.22;;;22.90;54.25
52319;BME280;38258;51.148;14.068;2023-07-02T09:46:37;97525.06;;;23.75;53.51
52319;BME280;38258;51.148;14.068;2023-07-02T09:49:05;97525.81;;;23.85;51.82
52319;BME280;38258;51.148;14.068;2023-07-02T09:51:34;97525.38;;;23.90;52.92
52319;BME280;38258;51.148;14.068;2023-07-02T09:54:01;97519.00;;;23.44;53.18
52319;BME280;38258;51.148;14.068;2023-07-02T09:56:27;97517.28;;;23.81;52.42
52319;BME280;38258;51.148;14.068;2023-07-02T09:58:54;97534.94;;;23.26;55.35
52319;BME280;38258;51.148;14.068;2023-07-02T10:01:20;97530.31;;;22.00;56.98
52319;BME280;38258;51.148;14.068;2023-07-02T10:03:48;97531.84;;;21.93;58.33
52319;BME280;38258;51.148;14.068;2023-07-02T10:06:14;97536.06;;;21.02;60.26
52319;BME280;38258;51.148;14.068;2023-07-02T10:08:52;97546.13;;;20.45;65.33
52319;BME280;38258;51.148;14.068;2023-07-02T10:11:19;97541.94;;;20.63;67.37
52319;BME280;38258;51.148;14.068;2023-07-02T10:13:45;97530.81;;;22.74;61.48
52319;BME280;38258;51.148;14.068;2023-07-02T10:16:12;97527.38;;;23.02;58.78
52319;BME280;38258;51.148;14.068;2023-07-02T10:18:38;97536.22;;;23.02;55.33
52319;BME280;38258;51.148;14.068;2023-07-02T10:21:15;97524.50;;;22.66;55.91
52319;BME280;38258;51.148;14.068;2023-07-02T10:23:43;97531.03;;;23.01;56.36
52319;BME280;38258;51.148;14.068;2023-07-02T10:26:10;97526.75;;;23.76;55.61
52319;BME280;38258;51.148;14.068;2023-07-02T10:28:37;97530.22;;;22.31;60.33
52319;BME280;38258;51.148;14.068;2023-07-02T10:31:03;97532.53;;;21.95;62.31
52319;BME280;38258;51.148;14.068;2023-07-02T10:33:30;97536.03;;;21.55;60.76
52319;BME280;38258;51.148;14.068;2023-07-02T10:35:56;97527.78;;;21.27;66.75
52319;BME280;38258;51.148;14.068;2023-07-02T10:38:24;97535.69;;;20.86;65.79
52319;BME280;38258;51.148;14.068;2023-07-02T10:40:56;97530.69;;;21.45;64.81
52319;BME280;38258;51.148;14.068;2023-07-02T10:43:25;97526.66;;;21.92;64.92
52319;BME280;38258;51.148;14.068;2023-07-02T10:45:53;97523.34;;;22.19;62.62
52319;BME280;38258;51.148;14.068;2023-07-02T10:48:20;97513.63;;;23.54;59.44
52319;BME280;38258;51.148;14.068;2023-07-02T10:50:47;97521.81;;;22.76;60.25
52319;BME280;38258;51.148;14.068;2023-07-02T10:53:17;97522.50;;;22.78;63.95
52319;BME280;38258;51.148;14.068;2023-07-02T10:55:44;97521.78;;;23.05;60.21
52319;BME280;38258;51.148;14.068;2023-07-02T10:58:12;97518.00;;;22.98;56.76
52319;BME280;38258;51.148;14.068;2023-07-02T11:00:43;97519.25;;;23.79;52.02
52319;BME280;38258;51.148;14.068;2023-07-02T11:03:16;97527.06;;;23.25;53.25
52319;BME280;38258;51.148;14.068;2023-07-02T11:05:43;97515.81;;;22.64;54.03
52319;BME280;38258;51.148;14.068;2023-07-02T11:08:10;97518.03;;;23.46;53.67
52319;BME280;38258;51.148;14.068;2023-07-02T11:10:37;97527.75;;;24.57;51.76
52319;BME280;38258;51.148;14.068;2023-07-02T11:13:12;97512.84;;;24.91;46.97
52319;BME280;38258;51.148;14.068;2023-07-02T11:15:38;97511.16;;;25.16;47.21
52319;BME280;38258;51.148;14.068;2023-07-02T11:18:10;97512.50;;;24.49;49.16
52319;BME280;38258;51.148;14.068;2023-07-02T11:20:38;97532.94;;;24.95;47.46
52319;BME280;38258;51.148;14.068;2023-07-02T11:23:04;97528.31;;;25.05;44.63
52319;BME280;38258;51.148;14.068;2023-07-02T11:25:31;97537.06;;;23.13;48.39
52319;BME280;38258;51.148;14.068;2023-07-02T11:28:04;97521.53;;;22.88;49.81
52319;BME280;38258;51.148;14.068;2023-07-02T11:30:33;97525.72;;;22.12;52.35
52319;BME280;38258;51.148;14.068;2023-07-02T11:33:00;97523.47;;;21.98;53.66
52319;BME280;38258;51.148;14.068;2023-07-02T11:35:34;97510.44;;;22.44;51.35
52319;BME280;38258;51.148;14.068;2023-07-02T11:38:01;97515.25;;;23.37;52.34
52319;BME280;38258;51.148;14.068;2023-07-02T11:40:27;97519.34;;;23.22;50.33
52319;BME280;38258;51.148;14.068;2023-07-02T11:42:54;97518.72;;;23.76;50.07
52319;BME280;38258;51.148;14.068;2023-07-02T11:45:21;97524.41;;;24.55;50.42
52319;BME280;38258;51.148;14.068;2023-07-02T11:47:49;97514.06;;;25.31;47.03
52319;BME280;38258;51.148;14.068;2023-07-02T11:50:15;97513.13;;;26.27;45.50
52319;BME280;38258;51.148;14.068;2023-07-02T11:52:42;97508.25;;;26.22;45.51
52319;BME280;38258;51.148;14.068;2023-07-02T11:55:08;97519.03;;;26.63;43.87
52319;BME280;38258;51.148;14.068;2023-07-02T11:57:35;97527.53;;;25.13;44.93
52319;BME280;38258;51.148;14.068;2023-07-02T12:00:02;97512.63;;;24.84;46.08
52319;BME280;38258;51.148;14.068;2023-07-02T12:02:33;97515.63;;;25.68;44.78
52319;BME280;38258;51.148;14.068;2023-07-02T12:05:01;97509.50;;;25.93;45.01
52319;BME280;38258;51.148;14.068;2023-07-02T12:07:28;97529.66;;;24.28;47.96
52319;BME280;38258;51.148;14.068;2023-07-02T12:09:54;97537.22;;;24.33;49.10
52319;BME280;38258;51.148;14.068;2023-07-02T12:12:21;97528.50;;;24.85;47.25
52319;BME280;38258;51.148;14.068;2023-07-02T12:14:47;97523.63;;;25.60;48.41
52319;BME280;38258;51.148;14.068;2023-07-02T12:17:14;97530.91;;;25.15;46.40
52319;BME280;38258;51.148;14.068;2023-07-02T12:19:41;97536.00;;;24.27;48.45
52319;BME280;38258;51.148;14.068;2023-07-02T12:22:09;97535.13;;;23.05;50.01
52319;BME280;38258;51.148;14.068;2023-07-02T12:24:35;97530.22;;;23.48;50.54
52319;BME280;38258;51.148;14.068;2023-07-02T12:27:02;97530.22;;;22.81;51.66
52319;BME280;38258;51.148;14.068;2023-07-02T12:29:28;97535.94;;;23.63;50.85
52319;BME280;38258;51.148;14.068;2023-07-02T12:31:55;97537.94;;;22.64;51.67
52319;BME280;38258;51.148;14.068;2023-07-02T12:34:21;97540.50;;;22.56;53.66
52319;BME280;38258;51.148;14.068;2023-07-02T12:36:48;97541.59;;;22.34;58.07
52319;BME280;38258;51.148;14.068;2023-07-02T12:39:16;97541.28;;;23.06;56.12
52319;BME280;38258;51.148;14.068;2023-07-02T12:41:42;97543.63;;;24.95;50.87
52319;BME280;38258;51.148;14.068;2023-07-02T12:44:09;97544.53;;;24.67;51.22